createdAt,value
2023-08-20T00:01:07.877Z,63.28
2023-08-20T00:06:28.187Z,66.19
2023-08-20T00:11:32.743Z,68.41
2023-08-20T00:16:37.777Z,70.32
2023-08-20T00:21:46.253Z,70.63
2023-08-20T00:26:51.065Z,71.45
2023-08-20T00:31:55.212Z,72.39
2023-08-20T00:37:00.770Z,69.14
2023-08-20T00:42:05.984Z,71.10
2023-08-20T00:47:11.131Z,72.33
2023-08-20T00:52:21.888Z,73.11
2023-08-20T00:57:28.785Z,73.77
2023-08-20T01:02:33.028Z,74.11
2023-08-20T01:08:18.446Z,73.87
2023-08-20T01:13:23.409Z,75.11
2023-08-20T01:18:28.837Z,75.06
2023-08-20T01:23:36.052Z,75.68
2023-08-20T01:28:41.991Z,76.25
2023-08-20T01:33:47.413Z,76.35
2023-08-20T01:38:53.075Z,76.19
2023-08-20T01:43:57.401Z,76.26
2023-08-20T01:49:02.027Z,76.56
2023-08-20T01:54:08.021Z,76.92
2023-08-20T01:59:12.631Z,77.01
2023-08-20T02:04:17.070Z,76.96
2023-08-20T02:09:22.769Z,76.89
2023-08-20T02:14:28.757Z,76.89
2023-08-20T02:19:33.490Z,76.52
2023-08-20T02:24:38.549Z,75.97
2023-08-20T02:29:42.680Z,75.51
2023-08-20T02:34:52.551Z,75.09
2023-08-20T02:39:56.891Z,75.37
2023-08-20T02:45:01.669Z,75.22
2023-08-20T02:50:07.202Z,75.64
2023-08-20T02:55:11.681Z,76.17
2023-08-20T03:00:17.235Z,76.14
2023-08-20T03:05:21.533Z,76.36
2023-08-20T03:10:25.767Z,75.96
2023-08-20T03:15:31.477Z,75.94
2023-08-20T03:20:36.949Z,75.91
2023-08-20T03:25:42.543Z,75.60
2023-08-20T03:30:47.871Z,75.51
2023-08-20T03:35:52.714Z,75.63
2023-08-20T03:40:57.977Z,74.45
2023-08-20T03:46:04.175Z,75.92
2023-08-20T03:51:08.509Z,76.76
2023-08-20T03:56:13.146Z,76.16
2023-08-20T04:01:17.572Z,77.71
2023-08-20T04:06:22.223Z,77.61
2023-08-20T04:11:28.013Z,77.10
2023-08-20T04:16:32.334Z,76.74
2023-08-20T04:21:36.786Z,75.58
2023-08-20T04:26:41.562Z,75.03
2023-08-20T04:31:46.944Z,76.90
2023-08-20T04:36:51.134Z,77.22
2023-08-20T04:41:59.066Z,76.86
2023-08-20T04:47:03.310Z,77.60
2023-08-20T04:52:07.857Z,77.45
2023-08-20T04:57:12.436Z,77.00
2023-08-20T05:02:16.914Z,76.30
2023-08-20T05:07:22.305Z,76.92
2023-08-20T05:12:27.120Z,76.45
2023-08-20T05:17:31.403Z,75.51
2023-08-20T05:22:36.617Z,74.77
2023-08-20T05:27:41.414Z,73.67
2023-08-20T05:32:46.237Z,72.89
2023-08-20T05:37:50.872Z,72.00
2023-08-20T05:42:55.429Z,71.75
2023-08-20T05:48:01.342Z,71.52
2023-08-20T05:53:05.823Z,71.09
2023-08-20T05:58:09.874Z,70.37
2023-08-20T06:03:15.343Z,69.95
2023-08-20T06:08:19.773Z,70.38
2023-08-20T06:13:24.563Z,70.64
2023-08-20T06:18:28.858Z,70.43
2023-08-20T06:23:44.153Z,70.42
2023-08-20T06:28:49.631Z,69.96
2023-08-20T06:33:54.074Z,68.36
2023-08-20T06:38:58.815Z,68.66
2023-08-20T06:44:04.956Z,68.08
2023-08-20T06:49:09.434Z,67.82
2023-08-20T06:54:13.904Z,66.36
2023-08-20T06:59:19.065Z,66.01
2023-08-20T07:04:23.698Z,65.11
2023-08-20T07:09:28.016Z,65.27
2023-08-20T07:14:32.567Z,64.07
2023-08-20T07:19:39.437Z,64.15
2023-08-20T07:24:43.902Z,63.81
2023-08-20T07:29:49.260Z,63.00
2023-08-20T07:34:54.088Z,62.24
2023-08-20T07:39:58.966Z,62.05
2023-08-20T07:45:04.973Z,61.29
2023-08-20T07:50:10.025Z,59.87
2023-08-20T07:55:15.273Z,59.21
2023-08-20T08:00:20.029Z,60.66
2023-08-20T08:05:24.806Z,60.84
2023-08-20T08:10:29.108Z,61.05
2023-08-20T08:15:33.958Z,59.11
2023-08-20T08:20:39.900Z,58.40
2023-08-20T08:25:44.189Z,58.81
2023-08-20T08:30:48.897Z,58.93
2023-08-20T08:35:53.448Z,58.64
2023-08-20T08:40:58.708Z,58.42
2023-08-20T08:46:08.624Z,57.94
2023-08-20T08:51:16.174Z,56.99
2023-08-20T08:56:20.551Z,54.14
2023-08-20T09:01:26.210Z,53.97
2023-08-20T09:06:48.359Z,53.56
2023-08-20T09:11:53.004Z,51.42
2023-08-20T09:17:03.454Z,49.61
2023-08-20T09:22:07.770Z,51.05
2023-08-20T09:27:14.020Z,51.22
2023-08-20T09:32:19.633Z,49.70
2023-08-20T09:37:26.103Z,47.93
2023-08-20T09:42:34.479Z,48.41
2023-08-20T09:47:43.964Z,48.59
2023-08-20T09:53:08.589Z,47.87
2023-08-20T09:58:13.725Z,47.81
2023-08-20T10:03:22.277Z,47.54
2023-08-20T10:08:28.969Z,47.38
2023-08-20T10:13:34.103Z,46.60
2023-08-20T10:18:39.596Z,47.22
2023-08-20T10:23:50.764Z,48.37
2023-08-20T10:29:41.079Z,48.02
2023-08-20T10:34:55.899Z,46.63
2023-08-20T10:40:00.865Z,46.67
2023-08-20T10:45:10.410Z,45.15
2023-08-20T10:50:19.426Z,43.95
2023-08-20T10:55:25.451Z,44.24
2023-08-20T11:00:31.932Z,44.93
2023-08-20T11:05:38.637Z,45.67
2023-08-20T11:10:43.062Z,45.99
2023-08-20T11:15:48.302Z,46.18
2023-08-20T11:20:53.076Z,45.54
2023-08-20T11:25:58.781Z,44.97
2023-08-20T11:31:04.483Z,44.86
2023-08-20T11:36:09.337Z,44.44
2023-08-20T11:41:13.932Z,41.80
2023-08-20T11:46:23.219Z,42.18
2023-08-20T11:51:28.427Z,43.18
2023-08-20T11:56:40.339Z,43.95
2023-08-20T12:01:52.584Z,44.17
2023-08-20T12:07:30.912Z,44.03
2023-08-20T12:12:36.626Z,43.79
2023-08-20T12:17:41.127Z,43.85
2023-08-20T12:22:45.833Z,43.23
2023-08-20T12:27:51.515Z,43.17
2023-08-20T12:32:57.408Z,43.02
2023-08-20T12:38:02.221Z,43.40
2023-08-20T12:43:07.733Z,43.20
2023-08-20T12:48:12.785Z,43.40
2023-08-20T12:53:17.243Z,43.21
2023-08-20T12:58:22.206Z,43.86
2023-08-20T13:03:27.231Z,44.11
2023-08-20T13:08:32.380Z,43.44
2023-08-20T13:13:37.689Z,42.55
2023-08-20T13:18:42.633Z,42.09
2023-08-20T13:23:46.863Z,41.53
2023-08-20T13:28:51.784Z,40.88
2023-08-20T13:33:56.332Z,39.69
2023-08-20T13:39:01.066Z,39.71
2023-08-20T13:44:05.769Z,39.78
2023-08-20T13:49:11.442Z,39.54
2023-08-20T13:54:15.733Z,39.71
2023-08-20T13:59:20.587Z,40.64
2023-08-20T14:04:25.156Z,41.49
2023-08-20T14:09:29.983Z,42.25
2023-08-20T14:14:34.538Z,42.94
2023-08-20T14:19:38.925Z,43.48
2023-08-20T14:24:43.853Z,44.05
2023-08-20T14:29:48.045Z,44.11
2023-08-20T14:34:52.902Z,44.02
2023-08-20T14:39:58.368Z,44.44
2023-08-20T14:45:05.509Z,44.83
2023-08-20T14:50:10.219Z,44.66
2023-08-20T14:55:15.095Z,44.52
2023-08-20T15:00:19.885Z,43.84
2023-08-20T15:05:24.064Z,43.13
2023-08-20T15:10:28.382Z,42.63
2023-08-20T15:15:33.662Z,41.40
2023-08-20T15:20:38.880Z,39.75
2023-08-20T15:25:43.038Z,38.99
2023-08-20T15:30:47.460Z,38.64
2023-08-20T15:35:51.843Z,38.63
2023-08-20T15:40:56.884Z,37.70
2023-08-20T15:46:01.458Z,37.51
2023-08-20T15:51:06.079Z,36.79
2023-08-20T15:56:10.614Z,36.41
2023-08-20T16:01:15.569Z,35.59
2023-08-20T16:06:19.778Z,35.95
2023-08-20T16:11:24.646Z,35.88
2023-08-20T16:16:29.041Z,35.90
2023-08-20T16:21:33.752Z,35.44
2023-08-20T16:26:39.096Z,35.94
2023-08-20T16:31:43.519Z,36.86
2023-08-20T16:36:48.115Z,37.03
2023-08-20T16:41:52.571Z,37.72
2023-08-20T16:46:57.081Z,38.38
2023-08-20T16:52:01.295Z,39.13
2023-08-20T16:57:06.079Z,39.85
2023-08-20T17:02:10.403Z,40.61
2023-08-20T17:07:14.953Z,41.78
2023-08-20T17:12:19.534Z,42.94
2023-08-20T17:17:30.833Z,44.61
2023-08-20T17:22:36.030Z,46.01
2023-08-20T17:27:40.604Z,47.05
2023-08-20T17:32:45.093Z,48.50
2023-08-20T17:37:50.101Z,49.74
2023-08-20T17:42:54.931Z,51.10
2023-08-20T17:47:59.959Z,51.93
2023-08-20T17:53:06.163Z,52.58
2023-08-20T17:58:10.296Z,53.56
2023-08-20T18:03:15.936Z,54.96
2023-08-20T18:08:20.265Z,55.54
2023-08-20T18:13:24.232Z,56.70
2023-08-20T18:18:30.101Z,57.15
2023-08-20T18:23:34.893Z,57.30
2023-08-20T18:28:41.917Z,57.19
2023-08-20T18:33:47.338Z,57.43
2023-08-20T18:38:52.190Z,58.27
2023-08-20T18:43:56.413Z,58.52
2023-08-20T18:49:00.694Z,59.79
2023-08-20T18:54:05.517Z,59.70
2023-08-20T18:59:10.045Z,59.75
2023-08-20T19:04:14.799Z,60.12
2023-08-20T19:09:19.625Z,60.24
2023-08-20T19:14:25.242Z,61.57
2023-08-20T19:19:30.674Z,63.87
2023-08-20T19:24:35.536Z,64.80
2023-08-20T19:29:41.096Z,63.07
2023-08-20T19:34:46.070Z,62.14
2023-08-20T19:39:50.389Z,61.66
2023-08-20T19:44:55.349Z,60.47
2023-08-20T19:50:00.242Z,62.01
2023-08-20T19:55:05.968Z,61.30
2023-08-20T20:00:17.603Z,60.84
2023-08-20T20:05:23.280Z,61.62
2023-08-20T20:10:29.135Z,63.97
2023-08-20T20:15:33.798Z,65.16
2023-08-20T20:20:39.232Z,64.25
2023-08-20T20:25:44.195Z,63.90
2023-08-20T20:30:48.870Z,62.53
2023-08-20T20:35:56.337Z,62.52
2023-08-20T20:41:00.678Z,62.76
2023-08-20T20:46:06.380Z,63.25
2023-08-20T20:51:11.411Z,63.62
2023-08-20T20:56:16.081Z,63.76
2023-08-20T21:01:22.540Z,63.89
2023-08-20T21:06:27.099Z,64.56
2023-08-20T21:11:31.436Z,65.20
2023-08-20T21:16:36.100Z,65.26
2023-08-20T21:21:42.865Z,67.24
2023-08-20T21:26:47.119Z,62.94
2023-08-20T21:31:51.962Z,58.65
2023-08-20T21:36:56.702Z,60.41
2023-08-20T21:42:01.082Z,64.18
2023-08-20T21:47:23.140Z,63.78
2023-08-20T21:52:28.563Z,61.20
2023-08-20T21:57:32.689Z,63.57
2023-08-20T22:02:37.247Z,59.10
2023-08-20T22:07:46.462Z,59.66
2023-08-20T22:12:50.643Z,66.26
2023-08-20T22:17:56.477Z,65.71
2023-08-20T22:23:01.049Z,62.21
2023-08-20T22:28:06.738Z,59.78
2023-08-20T22:33:10.992Z,63.59
2023-08-20T22:38:16.706Z,63.81
2023-08-20T22:43:20.868Z,62.80
2023-08-20T22:48:26.199Z,58.55
2023-08-20T22:53:31.899Z,60.76
2023-08-20T22:58:37.351Z,64.78
2023-08-20T23:03:41.590Z,64.63
2023-08-20T23:08:46.044Z,62.16
2023-08-20T23:13:53.636Z,58.53
2023-08-20T23:18:57.902Z,60.94
2023-08-20T23:24:02.490Z,65.23
2023-08-20T23:29:07.501Z,62.14
2023-08-20T23:34:12.396Z,61.45
2023-08-20T23:39:17.087Z,62.78
2023-08-20T23:44:21.573Z,63.33
2023-08-20T23:49:26.268Z,62.19
2023-08-20T23:54:30.933Z,61.75
2023-08-20T23:59:35.252Z,59.67
